createdAt,value
2022-10-11T00:02:08.705Z,2.78
2022-10-11T00:04:35.748Z,2.47
2022-10-11T00:07:02.321Z,2.50
2022-10-11T00:09:29.935Z,2.63
2022-10-11T00:11:56.724Z,2.75
2022-10-11T00:14:25.282Z,3.38
2022-10-11T00:16:52.375Z,3.05
2022-10-11T00:19:19.445Z,2.45
2022-10-11T00:21:46.817Z,2.50
2022-10-11T00:24:13.646Z,3.35
2022-10-11T00:26:45.725Z,2.67
2022-10-11T00:29:13.268Z,2.53
2022-10-11T00:31:40.900Z,2.70
2022-10-11T00:34:08.936Z,2.97
2022-10-11T00:36:36.148Z,2.88
2022-10-11T00:39:04.269Z,2.45
2022-10-11T00:41:31.249Z,2.63
2022-10-11T00:44:12.281Z,3.00
2022-10-11T00:46:42.329Z,3.08
2022-10-11T00:49:35.682Z,2.53
2022-10-11T00:52:07.013Z,2.28
2022-10-11T00:54:39.192Z,2.17
2022-10-11T00:57:11.964Z,2.40
2022-10-11T00:59:43.825Z,2.38
2022-10-11T01:02:11.575Z,2.60
2022-10-11T01:04:39.508Z,2.17
2022-10-11T01:07:06.556Z,2.60
2022-10-11T01:09:33.706Z,2.30
2022-10-11T01:12:05.218Z,2.70
2022-10-11T01:14:47.322Z,2.63
2022-10-11T01:17:49.435Z,2.50
2022-10-11T01:20:38.271Z,2.20
2022-10-11T01:23:23.713Z,2.08
2022-10-11T01:25:56.460Z,2.58
2022-10-11T01:28:42.251Z,2.60
2022-10-11T01:31:20.754Z,3.08
2022-10-11T01:33:59.917Z,2.47
2022-10-11T01:36:39.261Z,2.60
2022-10-11T01:39:39.030Z,2.30
2022-10-11T01:42:10.107Z,2.50
2022-10-11T01:44:39.376Z,2.55
2022-10-11T01:47:06.087Z,2.20
2022-10-11T01:49:33.152Z,2.33
2022-10-11T01:52:04.502Z,2.20
2022-10-11T01:54:56.466Z,2.67
2022-10-11T01:57:41.810Z,3.08
2022-10-11T02:00:14.918Z,2.63
2022-10-11T02:03:19.112Z,2.63
2022-10-11T02:06:04.720Z,2.47
2022-10-11T02:08:48.829Z,2.55
2022-10-11T02:11:41.398Z,2.15
2022-10-11T02:14:10.910Z,2.33
2022-10-11T02:16:43.887Z,1.73
2022-10-11T02:19:15.339Z,2.50
2022-10-11T02:21:45.634Z,2.20
2022-10-11T02:24:21.420Z,2.10
2022-10-11T02:26:53.237Z,2.28
2022-10-11T02:29:23.123Z,2.35
2022-10-11T02:31:50.903Z,2.63
2022-10-11T02:34:20.655Z,2.10
2022-10-11T02:36:59.351Z,2.55
2022-10-11T02:39:40.233Z,2.10
2022-10-11T02:42:13.740Z,2.10
2022-10-11T02:44:46.804Z,2.17
2022-10-11T02:47:14.414Z,2.20
2022-10-11T02:49:40.968Z,2.85
2022-10-11T02:52:08.145Z,2.45
2022-10-11T02:54:34.821Z,1.90
2022-10-11T02:57:01.850Z,2.20
2022-10-11T02:59:28.474Z,2.35
2022-10-11T03:01:55.586Z,2.22
2022-10-11T03:04:22.702Z,2.20
2022-10-11T03:06:49.267Z,2.47
2022-10-11T03:09:16.245Z,2.70
2022-10-11T03:11:42.891Z,2.97
2022-10-11T03:14:09.831Z,2.90
2022-10-11T03:16:36.448Z,2.78
2022-10-11T03:19:03.609Z,3.05
2022-10-11T03:21:30.220Z,2.95
2022-10-11T03:23:57.235Z,2.75
2022-10-11T03:26:23.874Z,2.22
2022-10-11T03:28:50.962Z,2.88
2022-10-11T03:31:18.713Z,2.55
2022-10-11T03:33:45.739Z,3.00
2022-10-11T03:36:12.697Z,2.90
2022-10-11T03:38:39.701Z,2.60
2022-10-11T03:41:06.505Z,2.95
2022-10-11T03:43:33.493Z,2.72
2022-10-11T03:46:00.182Z,2.83
2022-10-11T03:48:29.850Z,2.55
2022-10-11T03:50:56.400Z,2.70
2022-10-11T03:53:23.346Z,2.53
2022-10-11T03:55:54.502Z,2.55
2022-10-11T03:58:22.279Z,2.97
2022-10-11T04:00:49.458Z,2.15
2022-10-11T04:03:16.439Z,2.30
2022-10-11T04:05:42.974Z,3.05
2022-10-11T04:08:12.346Z,2.67
2022-10-11T04:10:40.358Z,2.58
2022-10-11T04:13:08.015Z,2.25
2022-10-11T04:15:34.959Z,2.17
2022-10-11T04:18:02.025Z,2.08
2022-10-11T04:20:28.958Z,2.28
2022-10-11T04:22:55.495Z,2.90
2022-10-11T04:25:22.525Z,2.63
2022-10-11T04:27:49.289Z,2.92
2022-10-11T04:30:16.740Z,2.95
2022-10-11T04:32:43.563Z,2.97
2022-10-11T04:35:10.695Z,2.80
2022-10-11T04:37:37.641Z,2.72
2022-10-11T04:40:05.948Z,2.78
2022-10-11T04:42:32.524Z,2.20
2022-10-11T04:44:59.464Z,2.53
2022-10-11T04:47:26.672Z,3.30
2022-10-11T04:49:53.599Z,2.70
2022-10-11T04:52:23.401Z,3.17
2022-10-11T04:54:52.634Z,3.22
2022-10-11T04:57:19.594Z,2.35
2022-10-11T04:59:50.037Z,2.17
2022-10-11T05:02:17.514Z,2.65
2022-10-11T05:04:44.601Z,2.95
2022-10-11T05:07:11.556Z,2.53
2022-10-11T05:09:38.071Z,2.60
2022-10-11T05:12:05.236Z,2.50
2022-10-11T05:14:31.775Z,2.75
2022-10-11T05:16:58.755Z,2.65
2022-10-11T05:19:25.859Z,2.70
2022-10-11T05:21:52.423Z,2.72
2022-10-11T05:24:18.951Z,2.60
2022-10-11T05:26:45.667Z,2.63
2022-10-11T05:29:12.322Z,3.35
2022-10-11T05:31:38.880Z,3.78
2022-10-11T05:34:05.821Z,2.78
2022-10-11T05:36:32.838Z,2.83
2022-10-11T05:38:59.360Z,3.80
2022-10-11T05:41:26.307Z,3.00
2022-10-11T05:43:52.842Z,2.67
2022-10-11T05:46:19.989Z,3.35
2022-10-11T05:48:46.519Z,3.10
2022-10-11T05:51:13.226Z,2.85
2022-10-11T05:53:40.310Z,2.65
2022-10-11T05:56:21.382Z,2.67
2022-10-11T05:58:49.122Z,2.53
2022-10-11T06:01:27.151Z,3.05
2022-10-11T06:03:54.411Z,2.60
2022-10-11T06:06:21.410Z,2.83
2022-10-11T06:08:48.451Z,2.83
2022-10-11T06:11:18.610Z,2.08
2022-10-11T06:13:45.176Z,2.47
2022-10-11T06:16:13.728Z,2.50
2022-10-11T06:18:40.715Z,2.92
2022-10-11T06:21:07.359Z,2.65
2022-10-11T06:23:33.945Z,2.40
2022-10-11T06:26:03.470Z,2.88
2022-10-11T06:28:30.869Z,2.70
2022-10-11T06:30:57.815Z,2.63
2022-10-11T06:33:25.108Z,2.83
2022-10-11T06:36:03.832Z,3.40
2022-10-11T06:38:31.082Z,3.08
2022-10-11T06:40:57.786Z,3.63
2022-10-11T06:43:25.235Z,3.05
2022-10-11T06:45:51.776Z,2.95
2022-10-11T06:48:18.335Z,3.15
2022-10-11T06:50:59.533Z,3.60
2022-10-11T06:53:28.175Z,3.33
2022-10-11T06:56:01.259Z,3.03
2022-10-11T06:58:28.868Z,2.72
2022-10-11T07:00:59.320Z,2.75
2022-10-11T07:03:25.942Z,2.88
2022-10-11T07:05:52.472Z,3.10
2022-10-11T07:08:18.999Z,3.00
2022-10-11T07:10:45.935Z,3.17
2022-10-11T07:13:17.004Z,2.85
2022-10-11T07:15:43.816Z,2.60
2022-10-11T07:18:10.489Z,3.15
2022-10-11T07:20:37.080Z,3.25
2022-10-11T07:23:03.609Z,3.38
2022-10-11T07:25:30.170Z,3.35
2022-10-11T07:27:57.118Z,3.38
2022-10-11T07:30:23.682Z,2.60
2022-10-11T07:32:50.611Z,3.05
2022-10-11T07:35:17.255Z,3.45
2022-10-11T07:37:44.251Z,3.03
2022-10-11T07:40:11.261Z,3.13
2022-10-11T07:42:37.892Z,3.17
2022-10-11T07:45:05.475Z,3.45
2022-10-11T07:47:32.010Z,3.72
2022-10-11T07:49:58.567Z,3.42
2022-10-11T07:52:25.142Z,3.38
2022-10-11T07:54:51.667Z,3.10
2022-10-11T07:57:18.194Z,3.22
2022-10-11T07:59:49.307Z,3.10
2022-10-11T08:02:16.739Z,3.00
2022-10-11T08:04:43.688Z,2.75
2022-10-11T08:07:10.351Z,2.63
2022-10-11T08:09:37.337Z,2.80
2022-10-11T08:12:04.005Z,2.90
2022-10-11T08:14:30.619Z,2.53
2022-10-11T08:16:57.561Z,2.40
2022-10-11T08:19:24.112Z,2.88
2022-10-11T08:21:50.660Z,2.30
2022-10-11T08:24:20.637Z,2.42
2022-10-11T08:26:48.296Z,2.20
2022-10-11T08:29:14.862Z,2.95
2022-10-11T08:31:41.425Z,2.38
2022-10-11T08:34:08.038Z,2.15
2022-10-11T08:36:34.655Z,2.90
2022-10-11T08:39:01.471Z,2.60
2022-10-11T08:41:37.145Z,2.70
2022-10-11T08:44:20.063Z,1.90
2022-10-11T08:46:51.664Z,2.78
2022-10-11T08:49:23.472Z,2.33
2022-10-11T08:52:00.469Z,2.92
2022-10-11T08:54:32.038Z,2.65
2022-10-11T08:57:00.326Z,2.83
2022-10-11T08:59:33.905Z,2.55
2022-10-11T09:02:43.601Z,2.60
2022-10-11T09:05:18.026Z,2.47
2022-10-11T09:08:10.077Z,2.45
2022-10-11T09:11:18.852Z,2.45
2022-10-11T09:14:06.914Z,2.50
2022-10-11T09:16:47.051Z,2.63
2022-10-11T09:19:52.217Z,2.28
2022-10-11T09:22:42.475Z,2.10
2022-10-11T09:25:20.963Z,2.13
2022-10-11T09:28:03.879Z,2.10
2022-10-11T09:30:31.900Z,2.22
2022-10-11T09:33:17.475Z,2.65
2022-10-11T09:35:49.087Z,1.83
2022-10-11T09:38:38.799Z,2.00
2022-10-11T09:41:29.611Z,2.13
2022-10-11T09:43:56.237Z,1.92
2022-10-11T09:46:32.825Z,1.60
2022-10-11T09:49:02.942Z,2.08
2022-10-11T09:51:30.420Z,2.53
2022-10-11T09:54:02.792Z,2.47
2022-10-11T09:56:31.612Z,1.83
2022-10-11T09:59:26.163Z,2.28
2022-10-11T10:02:18.262Z,2.05
2022-10-11T10:05:09.008Z,1.90
2022-10-11T10:07:40.766Z,1.67
2022-10-11T10:10:33.939Z,3.10
2022-10-11T10:13:04.422Z,1.92
2022-10-11T10:15:36.814Z,1.60
2022-10-11T10:18:06.407Z,1.75
2022-10-11T10:20:35.496Z,1.67
2022-10-11T10:23:18.975Z,1.80
2022-10-11T10:25:51.252Z,2.17
2022-10-11T10:28:20.309Z,1.83
2022-10-11T10:30:55.593Z,1.42
2022-10-11T10:33:25.119Z,2.10
2022-10-11T10:36:03.900Z,2.05
2022-10-11T10:38:42.699Z,1.63
2022-10-11T10:41:12.106Z,1.55
2022-10-11T10:43:41.706Z,1.48
2022-10-11T10:46:31.257Z,1.40
2022-10-11T10:49:48.314Z,1.70
2022-10-11T10:52:20.956Z,1.35
2022-10-11T10:55:28.099Z,1.60
2022-10-11T10:58:03.977Z,1.70
2022-10-11T11:00:38.374Z,1.67
2022-10-11T11:03:12.504Z,1.65
2022-10-11T11:06:02.827Z,1.63
2022-10-11T11:09:05.523Z,2.72
2022-10-11T11:11:45.187Z,3.30
2022-10-11T11:14:48.979Z,1.45
2022-10-11T11:17:37.357Z,1.80
2022-10-11T11:20:32.339Z,1.88
2022-10-11T11:23:27.506Z,2.22
2022-10-11T11:26:23.051Z,2.25
2022-10-11T11:29:04.695Z,1.50
2022-10-11T11:31:55.011Z,1.50
2022-10-11T11:34:38.622Z,1.52
2022-10-11T11:37:22.862Z,1.60
2022-10-11T11:39:56.033Z,1.50
2022-10-11T11:42:51.778Z,1.35
2022-10-11T11:45:25.183Z,1.55
2022-10-11T11:48:06.466Z,1.50
2022-10-11T11:50:43.050Z,1.73
2022-10-11T11:53:16.044Z,1.75
2022-10-11T11:56:05.604Z,1.48
2022-10-11T11:58:54.449Z,2.00
2022-10-11T12:01:46.288Z,1.55
2022-10-11T12:04:27.169Z,1.90
2022-10-11T12:07:17.959Z,1.65
2022-10-11T12:09:50.874Z,1.75
2022-10-11T12:12:37.090Z,1.50
2022-10-11T12:15:12.948Z,3.95
2022-10-11T12:18:14.242Z,2.78
2022-10-11T12:20:42.848Z,1.65
2022-10-11T12:23:28.081Z,2.53
2022-10-11T12:26:29.241Z,2.53
2022-10-11T12:29:25.942Z,2.88
2022-10-11T12:32:01.630Z,2.85
2022-10-11T12:34:37.115Z,2.03
2022-10-11T12:37:22.778Z,2.40
2022-10-11T12:39:55.173Z,2.08
2022-10-11T12:42:36.367Z,1.83
2022-10-11T12:45:23.321Z,1.83
2022-10-11T12:48:15.335Z,2.08
2022-10-11T12:51:00.761Z,2.28
2022-10-11T12:54:07.910Z,1.90
2022-10-11T12:56:52.284Z,2.17
2022-10-11T12:59:23.297Z,2.03
2022-10-11T13:01:56.178Z,1.73
2022-10-11T13:04:28.690Z,1.73
2022-10-11T13:07:06.742Z,1.30
2022-10-11T13:09:35.440Z,1.63
2022-10-11T13:12:26.455Z,2.63
2022-10-11T13:15:12.549Z,2.03
2022-10-11T13:17:40.484Z,1.50
2022-10-11T13:20:16.030Z,1.98
2022-10-11T13:22:46.321Z,2.00
2022-10-11T13:25:17.686Z,1.80
2022-10-11T13:27:45.212Z,1.75
2022-10-11T13:30:19.809Z,1.85
2022-10-11T13:32:46.700Z,1.60
2022-10-11T13:35:33.955Z,1.95
2022-10-11T13:38:01.265Z,1.60
2022-10-11T13:40:29.292Z,1.40
2022-10-11T13:42:56.787Z,1.70
2022-10-11T13:45:25.875Z,1.38
2022-10-11T13:47:54.470Z,2.35
2022-10-11T13:50:33.518Z,2.25
2022-10-11T13:53:23.740Z,1.70
2022-10-11T13:56:18.869Z,1.92
2022-10-11T13:58:47.145Z,2.08
2022-10-11T14:01:21.184Z,2.30
2022-10-11T14:04:00.034Z,1.60
2022-10-11T14:06:47.174Z,2.25
2022-10-11T14:09:25.162Z,1.80
2022-10-11T14:11:51.924Z,1.55
2022-10-11T14:14:34.092Z,2.08
2022-10-11T14:17:15.335Z,1.40
2022-10-11T14:19:44.203Z,1.70
2022-10-11T14:22:15.139Z,1.65
2022-10-11T14:24:42.853Z,1.55
2022-10-11T14:27:21.930Z,1.30
2022-10-11T14:30:12.986Z,1.45
2022-10-11T14:32:36.409Z,2.10
2022-10-11T14:35:03.451Z,1.58
2022-10-11T14:37:29.984Z,1.80
2022-10-11T14:39:56.538Z,1.20
2022-10-11T14:42:23.522Z,1.35
2022-10-11T14:44:50.141Z,1.40
2022-10-11T14:47:17.430Z,2.10
2022-10-11T14:49:45.430Z,1.60
2022-10-11T14:52:14.651Z,1.20
2022-10-11T14:54:41.878Z,2.28
2022-10-11T14:57:11.622Z,1.67
2022-10-11T14:59:38.429Z,1.60
2022-10-11T15:02:06.962Z,1.73
2022-10-11T15:04:33.897Z,1.17
2022-10-11T15:07:00.508Z,1.40
2022-10-11T15:09:27.531Z,1.63
2022-10-11T15:11:54.789Z,1.70
2022-10-11T15:14:23.587Z,1.42
2022-10-11T15:16:50.337Z,1.70
2022-10-11T15:19:21.253Z,1.73
2022-10-11T15:21:48.372Z,1.83
2022-10-11T15:24:15.500Z,1.95
2022-10-11T15:26:42.336Z,2.03
2022-10-11T15:29:11.557Z,1.55
2022-10-11T15:31:38.834Z,1.73
2022-10-11T15:34:05.869Z,2.17
2022-10-11T15:36:32.881Z,1.83
2022-10-11T15:39:00.350Z,2.03
2022-10-11T15:41:26.914Z,1.73
2022-10-11T15:43:53.545Z,2.13
2022-10-11T15:46:22.420Z,1.90
2022-10-11T15:48:51.313Z,1.85
2022-10-11T15:51:19.669Z,1.33
2022-10-11T15:53:46.444Z,1.55
2022-10-11T15:56:16.748Z,1.30
2022-10-11T15:58:44.001Z,1.40
2022-10-11T16:01:18.065Z,1.60
2022-10-11T16:03:47.012Z,1.55
2022-10-11T16:06:14.077Z,1.40
2022-10-11T16:08:41.106Z,1.40
2022-10-11T16:11:09.549Z,1.30
2022-10-11T16:13:38.934Z,1.33
2022-10-11T16:16:08.430Z,1.38
2022-10-11T16:18:36.395Z,2.25
2022-10-11T16:21:11.046Z,1.60
2022-10-11T16:23:38.640Z,1.67
2022-10-11T16:26:10.020Z,1.55
2022-10-11T16:28:37.661Z,1.60
2022-10-11T16:31:09.623Z,1.48
2022-10-11T16:33:46.258Z,1.30
2022-10-11T16:36:36.774Z,1.60
2022-10-11T16:39:10.578Z,1.80
2022-10-11T16:41:37.646Z,1.73
2022-10-11T16:44:05.056Z,1.60
2022-10-11T16:46:32.666Z,2.10
2022-10-11T16:48:59.319Z,2.40
2022-10-11T16:51:26.341Z,2.67
2022-10-11T16:53:53.745Z,2.55
2022-10-11T16:56:22.483Z,2.33
2022-10-11T16:58:49.692Z,2.15
2022-10-11T17:01:16.728Z,1.38
2022-10-11T17:03:44.078Z,2.05
2022-10-11T17:06:10.724Z,1.65
2022-10-11T17:08:37.843Z,2.17
2022-10-11T17:11:04.658Z,1.73
2022-10-11T17:13:31.685Z,2.15
2022-10-11T17:15:58.790Z,1.85
2022-10-11T17:18:26.115Z,1.90
2022-10-11T17:21:04.807Z,1.80
2022-10-11T17:23:32.114Z,1.63
2022-10-11T17:26:01.249Z,1.63
2022-10-11T17:28:27.861Z,2.15
2022-10-11T17:30:58.855Z,2.60
2022-10-11T17:33:26.615Z,2.20
2022-10-11T17:35:54.847Z,2.63
2022-10-11T17:38:26.044Z,2.20
2022-10-11T17:41:04.354Z,2.75
2022-10-11T17:43:31.912Z,3.03
2022-10-11T17:45:59.990Z,3.45
2022-10-11T17:48:29.094Z,4.00
2022-10-11T17:50:57.281Z,3.28
2022-10-11T17:53:24.436Z,3.55
2022-10-11T17:55:51.174Z,3.80
2022-10-11T17:58:18.576Z,3.95
2022-10-11T18:00:45.351Z,3.63
2022-10-11T18:03:12.878Z,4.80
2022-10-11T18:05:42.519Z,4.28
2022-10-11T18:08:10.064Z,5.00
2022-10-11T18:10:37.632Z,4.97
2022-10-11T18:13:06.816Z,5.00
2022-10-11T18:15:34.011Z,4.57
2022-10-11T18:18:00.675Z,5.25
2022-10-11T18:20:27.215Z,4.78
2022-10-11T18:22:54.550Z,5.70
2022-10-11T18:25:21.096Z,5.00
2022-10-11T18:27:48.326Z,5.97
2022-10-11T18:30:15.414Z,5.45
2022-10-11T18:32:44.115Z,5.47
2022-10-11T18:35:11.203Z,4.80
2022-10-11T18:37:38.474Z,4.05
2022-10-11T18:40:06.071Z,4.43
2022-10-11T18:42:33.607Z,3.75
2022-10-11T18:45:00.237Z,3.70
2022-10-11T18:47:27.258Z,4.55
2022-10-11T18:49:55.211Z,4.00
2022-10-11T18:52:22.190Z,4.10
2022-10-11T18:54:50.197Z,4.40
2022-10-11T18:57:17.099Z,5.35
2022-10-11T19:02:33.726Z,8.73
2022-10-11T19:05:01.078Z,9.23
2022-10-11T19:07:28.696Z,8.75
2022-10-11T19:09:55.212Z,8.73
2022-10-11T19:12:25.838Z,8.50
2022-10-11T19:14:53.172Z,9.90
2022-10-11T19:17:22.631Z,7.50
2022-10-11T19:19:49.921Z,8.00
2022-10-11T19:22:17.321Z,7.70
2022-10-11T19:24:44.532Z,7.65
2022-10-11T19:27:11.311Z,7.43
2022-10-11T19:29:37.929Z,8.32
2022-10-11T19:32:05.307Z,6.75
2022-10-11T19:34:33.192Z,6.97
2022-10-11T19:37:03.234Z,6.68
2022-10-11T19:39:29.952Z,7.07
2022-10-11T19:41:58.388Z,6.85
2022-10-11T19:44:25.361Z,7.43
2022-10-11T19:46:52.889Z,6.18
2022-10-11T19:49:23.095Z,7.45
2022-10-11T19:51:51.556Z,6.65
2022-10-11T19:54:18.128Z,6.72
2022-10-11T19:56:44.920Z,7.05
2022-10-11T19:59:13.254Z,7.65
2022-10-11T20:01:40.986Z,6.03
2022-10-11T20:04:27.514Z,6.65
2022-10-11T20:06:58.800Z,6.53
2022-10-11T20:09:30.323Z,6.53
2022-10-11T20:11:57.784Z,6.03
2022-10-11T20:14:24.520Z,5.10
2022-10-11T20:16:51.403Z,5.18
2022-10-11T20:19:18.631Z,5.20
2022-10-11T20:21:45.743Z,4.88
2022-10-11T20:24:13.309Z,5.18
2022-10-11T20:26:40.187Z,4.93
2022-10-11T20:29:07.470Z,4.85
2022-10-11T20:31:38.376Z,3.90
2022-10-11T20:34:07.726Z,4.40
2022-10-11T20:36:35.867Z,3.60
2022-10-11T20:39:04.214Z,3.75
2022-10-11T20:41:34.066Z,3.63
2022-10-11T20:44:02.273Z,3.65
2022-10-11T20:46:32.154Z,3.63
2022-10-11T20:49:02.511Z,4.10
2022-10-11T20:51:32.708Z,4.20
2022-10-11T20:54:00.680Z,3.55
2022-10-11T20:56:27.928Z,3.88
2022-10-11T20:58:56.050Z,4.57
2022-10-11T21:01:26.643Z,4.50
2022-10-11T21:03:53.626Z,4.03
2022-10-11T21:06:20.488Z,3.50
2022-10-11T21:08:47.052Z,3.55
2022-10-11T21:11:13.675Z,3.50
2022-10-11T21:13:50.255Z,3.65
2022-10-11T21:16:16.856Z,3.97
2022-10-11T21:18:43.455Z,3.53
2022-10-11T21:21:13.105Z,3.35
2022-10-11T21:23:41.107Z,3.28
2022-10-11T21:26:10.571Z,3.88
2022-10-11T21:28:38.383Z,3.53
2022-10-11T21:31:09.642Z,3.58
2022-10-11T21:33:37.111Z,3.95
2022-10-11T21:36:09.327Z,3.08
2022-10-11T21:38:37.216Z,3.97
2022-10-11T21:41:13.379Z,3.50
2022-10-11T21:43:40.520Z,3.15
2022-10-11T21:46:32.545Z,4.05
2022-10-11T21:49:03.889Z,3.03
2022-10-11T21:51:31.871Z,2.97
2022-10-11T21:54:00.308Z,2.83
2022-10-11T21:56:28.198Z,2.50
2022-10-11T21:58:55.248Z,2.72
2022-10-11T22:01:22.250Z,2.97
2022-10-11T22:03:49.799Z,2.50
2022-10-11T22:06:16.763Z,2.45
2022-10-11T22:08:43.378Z,2.70
2022-10-11T22:11:11.127Z,2.75
2022-10-11T22:13:38.252Z,2.50
2022-10-11T22:16:10.514Z,3.30
2022-10-11T22:18:37.808Z,2.83
2022-10-11T22:21:12.203Z,2.58
2022-10-11T22:23:38.975Z,2.65
2022-10-11T22:26:09.065Z,2.58
2022-10-11T22:28:36.144Z,2.50
2022-10-11T22:31:05.280Z,2.55
2022-10-11T22:33:32.700Z,2.20
2022-10-11T22:36:01.666Z,2.20
2022-10-11T22:38:28.270Z,2.50
2022-10-11T22:40:58.222Z,2.90
2022-10-11T22:43:24.887Z,2.60
2022-10-11T22:45:51.944Z,2.20
2022-10-11T22:48:19.040Z,2.63
2022-10-11T22:50:46.303Z,2.72
2022-10-11T22:53:14.079Z,2.35
2022-10-11T22:55:41.377Z,3.55
2022-10-11T22:58:08.518Z,3.03
2022-10-11T23:00:35.523Z,2.65
2022-10-11T23:03:02.101Z,2.95
2022-10-11T23:05:29.093Z,2.50
2022-10-11T23:07:55.639Z,2.50
2022-10-11T23:10:22.631Z,2.72
2022-10-11T23:12:49.596Z,2.45
2022-10-11T23:15:16.271Z,2.60
2022-10-11T23:17:43.230Z,2.30
2022-10-11T23:20:10.280Z,2.28
2022-10-11T23:22:37.220Z,2.83
2022-10-11T23:25:04.550Z,2.10
2022-10-11T23:27:31.707Z,2.90
2022-10-11T23:29:58.636Z,2.38
2022-10-11T23:32:25.264Z,2.42
2022-10-11T23:34:52.216Z,2.28
2022-10-11T23:37:18.750Z,3.10
2022-10-11T23:39:45.889Z,2.40
2022-10-11T23:42:12.887Z,2.28
2022-10-11T23:44:39.858Z,2.92
2022-10-11T23:47:06.401Z,2.58
2022-10-11T23:49:33.326Z,2.22
2022-10-11T23:52:00.327Z,2.58
2022-10-11T23:54:26.923Z,2.35
2022-10-11T23:56:53.884Z,2.53
2022-10-11T23:59:20.458Z,2.42
